sensor_id;sensor_type;location;lat;lon;timestamp;pressure;altitude;pressure_sealevel;temperature;humidity
65175;BME280;51761;42.126;24.752;2023-04-22T00:00:11;99375.91;;;13.29;98.79
65175;BME280;51761;42.126;24.752;2023-04-22T00:02:37;99379.75;;;13.35;99.05
65175;BME280;51761;42.126;24.752;2023-04-22T00:05:06;99376.38;;;13.40;98.45
65175;BME280;51761;42.126;24.752;2023-04-22T00:07:32;99371.19;;;13.38;98.11
65175;BME280;51761;42.126;24.752;2023-04-22T00:09:58;99352.56;;;13.32;97.39
65175;BME280;51761;42.126;24.752;2023-04-22T00:12:24;99373.44;;;13.56;96.40
65175;BME280;51761;42.126;24.752;2023-04-22T00:14:49;99357.97;;;13.39;96.79
65175;BME280;51761;42.126;24.752;2023-04-22T00:17:15;99375.00;;;13.57;97.02
65175;BME280;51761;42.126;24.752;2023-04-22T00:19:40;99343.38;;;13.44;98.22
65175;BME280;51761;42.126;24.752;2023-04-22T00:22:06;99365.94;;;13.53;97.13
65175;BME280;51761;42.126;24.752;2023-04-22T00:24:32;99345.97;;;13.51;94.23
65175;BME280;51761;42.126;24.752;2023-04-22T00:26:57;99365.03;;;13.68;92.39
65175;BME280;51761;42.126;24.752;2023-04-22T00:29:26;99367.25;;;13.73;91.89
65175;BME280;51761;42.126;24.752;2023-04-22T00:31:51;99360.41;;;13.74;91.87
65175;BME280;51761;42.126;24.752;2023-04-22T00:34:17;99359.56;;;13.65;91.31
65175;BME280;51761;42.126;24.752;2023-04-22T00:36:43;99357.84;;;13.67;91.21
65175;BME280;51761;42.126;24.752;2023-04-22T00:39:08;99354.84;;;13.62;92.11
65175;BME280;51761;42.126;24.752;2023-04-22T00:41:34;99351.56;;;13.63;93.00
65175;BME280;51761;42.126;24.752;2023-04-22T00:44:00;99357.19;;;13.51;94.67
65175;BME280;51761;42.126;24.752;2023-04-22T00:46:26;99340.47;;;13.47;92.58
65175;BME280;51761;42.126;24.752;2023-04-22T00:48:52;99360.31;;;13.65;92.13
65175;BME280;51761;42.126;24.752;2023-04-22T00:51:17;99358.41;;;13.75;92.12
65175;BME280;51761;42.126;24.752;2023-04-22T00:53:43;99362.56;;;13.58;93.37
65175;BME280;51761;42.126;24.752;2023-04-22T00:56:10;99372.78;;;13.64;93.86
65175;BME280;51761;42.126;24.752;2023-04-22T00:58:35;99377.63;;;13.64;94.53
65175;BME280;51761;42.126;24.752;2023-04-22T01:01:01;99354.94;;;13.58;94.18
65175;BME280;51761;42.126;24.752;2023-04-22T01:03:27;99368.88;;;13.62;95.04
65175;BME280;51761;42.126;24.752;2023-04-22T01:05:55;99383.91;;;13.68;95.54
65175;BME280;51761;42.126;24.752;2023-04-22T01:08:23;99381.88;;;13.56;96.87
65175;BME280;51761;42.126;24.752;2023-04-22T01:10:53;99383.09;;;13.55;96.83
65175;BME280;51761;42.126;24.752;2023-04-22T01:13:18;99362.91;;;13.35;97.08
65175;BME280;51761;42.126;24.752;2023-04-22T01:15:44;99375.91;;;13.54;96.88
65175;BME280;51761;42.126;24.752;2023-04-22T01:18:10;99378.72;;;13.54;94.91
65175;BME280;51761;42.126;24.752;2023-04-22T01:20:36;99376.72;;;13.54;94.23
65175;BME280;51761;42.126;24.752;2023-04-22T01:23:02;99384.66;;;13.56;94.66
65175;BME280;51761;42.126;24.752;2023-04-22T01:25:29;99376.16;;;13.47;94.54
65175;BME280;51761;42.126;24.752;2023-04-22T01:27:55;99375.81;;;13.45;93.79
65175;BME280;51761;42.126;24.752;2023-04-22T01:30:21;99370.53;;;13.47;92.47
65175;BME280;51761;42.126;24.752;2023-04-22T01:32:47;99370.63;;;13.43;93.46
65175;BME280;51761;42.126;24.752;2023-04-22T01:35:12;99368.97;;;13.46;93.78
65175;BME280;51761;42.126;24.752;2023-04-22T01:37:38;99368.63;;;13.44;92.76
65175;BME280;51761;42.126;24.752;2023-04-22T01:40:04;99372.56;;;13.34;93.78
65175;BME280;51761;42.126;24.752;2023-04-22T01:42:31;99370.16;;;13.20;95.03
65175;BME280;51761;42.126;24.752;2023-04-22T01:44:57;99376.91;;;13.22;94.65
65175;BME280;51761;42.126;24.752;2023-04-22T01:47:22;99376.47;;;13.24;93.70
65175;BME280;51761;42.126;24.752;2023-04-22T01:49:48;99383.41;;;13.32;93.71
65175;BME280;51761;42.126;24.752;2023-04-22T01:52:13;99373.88;;;13.29;93.67
65175;BME280;51761;42.126;24.752;2023-04-22T01:54:39;99349.66;;;13.23;94.28
65175;BME280;51761;42.126;24.752;2023-04-22T01:57:08;99343.81;;;13.05;95.03
65175;BME280;51761;42.126;24.752;2023-04-22T01:59:35;99364.09;;;13.09;95.85
65175;BME280;51761;42.126;24.752;2023-04-22T02:02:01;99356.78;;;12.99;96.54
65175;BME280;51761;42.126;24.752;2023-04-22T02:04:26;99355.59;;;12.84;97.47
65175;BME280;51761;42.126;24.752;2023-04-22T02:06:52;99350.91;;;12.81;97.81
65175;BME280;51761;42.126;24.752;2023-04-22T02:09:17;99352.22;;;12.76;98.23
65175;BME280;51761;42.126;24.752;2023-04-22T02:11:43;99368.44;;;12.69;99.38
65175;BME280;51761;42.126;24.752;2023-04-22T02:14:08;99368.00;;;12.70;98.96
65175;BME280;51761;42.126;24.752;2023-04-22T02:16:34;99349.31;;;12.52;99.46
65175;BME280;51761;42.126;24.752;2023-04-22T02:18:59;99353.25;;;12.54;99.68
65175;BME280;51761;42.126;24.752;2023-04-22T02:21:27;99323.28;;;12.39;100.00
65175;BME280;51761;42.126;24.752;2023-04-22T02:23:53;99352.47;;;12.54;100.00
65175;BME280;51761;42.126;24.752;2023-04-22T02:26:18;99342.44;;;12.40;100.00
65175;BME280;51761;42.126;24.752;2023-04-22T02:28:44;99361.91;;;12.31;100.00
65175;BME280;51761;42.126;24.752;2023-04-22T02:31:09;99371.94;;;12.45;100.00
65175;BME280;51761;42.126;24.752;2023-04-22T02:33:34;99363.63;;;12.41;100.00
65175;BME280;51761;42.126;24.752;2023-04-22T02:36:00;99341.81;;;12.20;100.00
65175;BME280;51761;42.126;24.752;2023-04-22T02:38:26;99362.25;;;12.33;100.00
65175;BME280;51761;42.126;24.752;2023-04-22T02:40:51;99363.97;;;12.43;100.00
65175;BME280;51761;42.126;24.752;2023-04-22T02:43:17;99345.09;;;12.31;100.00
65175;BME280;51761;42.126;24.752;2023-04-22T02:45:42;99337.41;;;12.19;100.00
65175;BME280;51761;42.126;24.752;2023-04-22T02:48:07;99341.00;;;12.20;100.00
65175;BME280;51761;42.126;24.752;2023-04-22T02:50:33;99370.44;;;12.40;100.00
65175;BME280;51761;42.126;24.752;2023-04-22T02:52:58;99363.81;;;12.34;99.91
65175;BME280;51761;42.126;24.752;2023-04-22T02:55:24;99373.59;;;12.42;99.91
65175;BME280;51761;42.126;24.752;2023-04-22T02:57:49;99374.09;;;12.53;98.99
65175;BME280;51761;42.126;24.752;2023-04-22T03:00:15;99373.25;;;12.40;98.92
65175;BME280;51761;42.126;24.752;2023-04-22T03:02:41;99372.41;;;12.27;99.66
65175;BME280;51761;42.126;24.752;2023-04-22T03:05:06;99368.25;;;12.32;99.80
65175;BME280;51761;42.126;24.752;2023-04-22T03:07:32;99367.94;;;12.30;99.91
65175;BME280;51761;42.126;24.752;2023-04-22T03:09:57;99359.13;;;12.15;100.00
65175;BME280;51761;42.126;24.752;2023-04-22T03:12:24;99374.66;;;12.32;100.00
65175;BME280;51761;42.126;24.752;2023-04-22T03:14:49;99352.91;;;12.24;100.00
65175;BME280;51761;42.126;24.752;2023-04-22T03:17:15;99355.59;;;12.27;100.00
65175;BME280;51761;42.126;24.752;2023-04-22T03:19:40;99367.84;;;12.33;100.00
65175;BME280;51761;42.126;24.752;2023-04-22T03:22:06;99344.84;;;12.26;100.00
65175;BME280;51761;42.126;24.752;2023-04-22T03:24:31;99372.00;;;12.41;100.00
65175;BME280;51761;42.126;24.752;2023-04-22T03:26:57;99352.47;;;12.25;99.83
65175;BME280;51761;42.126;24.752;2023-04-22T03:29:22;99348.44;;;12.26;98.38
65175;BME280;51761;42.126;24.752;2023-04-22T03:31:48;99353.72;;;12.08;95.87
65175;BME280;51761;42.126;24.752;2023-04-22T03:34:13;99375.06;;;12.02;94.94
65175;BME280;51761;42.126;24.752;2023-04-22T03:36:39;99377.25;;;11.95;94.30
65175;BME280;51761;42.126;24.752;2023-04-22T03:39:04;99386.06;;;11.77;93.48
65175;BME280;51761;42.126;24.752;2023-04-22T03:41:29;99386.69;;;11.69;92.43
65175;BME280;51761;42.126;24.752;2023-04-22T03:43:55;99379.16;;;11.66;92.44
65175;BME280;51761;42.126;24.752;2023-04-22T03:46:20;99355.31;;;11.42;92.71
65175;BME280;51761;42.126;24.752;2023-04-22T03:48:46;99397.75;;;11.56;93.71
65175;BME280;51761;42.126;24.752;2023-04-22T03:51:11;99398.41;;;11.44;94.92
65175;BME280;51761;42.126;24.752;2023-04-22T03:53:37;99374.09;;;11.25;95.69
65175;BME280;51761;42.126;24.752;2023-04-22T03:56:03;99400.50;;;11.60;95.01
65175;BME280;51761;42.126;24.752;2023-04-22T03:58:28;99404.72;;;11.48;94.86
65175;BME280;51761;42.126;24.752;2023-04-22T04:00:54;99404.25;;;11.34;95.56
65175;BME280;51761;42.126;24.752;2023-04-22T04:03:20;99402.78;;;11.45;94.98
65175;BME280;51761;42.126;24.752;2023-04-22T04:05:45;99410.44;;;11.61;94.54
65175;BME280;51761;42.126;24.752;2023-04-22T04:08:11;99401.13;;;11.67;94.52
65175;BME280;51761;42.126;24.752;2023-04-22T04:10:36;99420.44;;;11.78;94.20
65175;BME280;51761;42.126;24.752;2023-04-22T04:13:02;99419.47;;;11.84;93.45
65175;BME280;51761;42.126;24.752;2023-04-22T04:15:27;99423.31;;;11.90;92.69
65175;BME280;51761;42.126;24.752;2023-04-22T04:17:54;99418.94;;;11.89;93.13
65175;BME280;51761;42.126;24.752;2023-04-22T04:20:21;99428.06;;;11.93;93.73
65175;BME280;51761;42.126;24.752;2023-04-22T04:22:46;99410.72;;;11.82;94.32
65175;BME280;51761;42.126;24.752;2023-04-22T04:25:12;99402.34;;;11.82;94.85
65175;BME280;51761;42.126;24.752;2023-04-22T04:27:38;99408.03;;;11.95;94.97
65175;BME280;51761;42.126;24.752;2023-04-22T04:30:04;99432.69;;;12.16;95.19
65175;BME280;51761;42.126;24.752;2023-04-22T04:32:30;99424.13;;;12.23;96.50
65175;BME280;51761;42.126;24.752;2023-04-22T04:34:58;99423.31;;;12.38;95.69
65175;BME280;51761;42.126;24.752;2023-04-22T04:37:25;99400.50;;;12.24;96.65
65175;BME280;51761;42.126;24.752;2023-04-22T04:39:51;99413.72;;;12.23;97.52
65175;BME280;51761;42.126;24.752;2023-04-22T04:42:18;99434.09;;;12.40;98.12
65175;BME280;51761;42.126;24.752;2023-04-22T04:44:44;99431.00;;;12.50;98.07
65175;BME280;51761;42.126;24.752;2023-04-22T04:47:11;99427.31;;;12.53;97.29
65175;BME280;51761;42.126;24.752;2023-04-22T04:49:37;99439.41;;;12.50;98.19
65175;BME280;51761;42.126;24.752;2023-04-22T04:52:04;99438.41;;;12.72;97.07
65175;BME280;51761;42.126;24.752;2023-04-22T04:54:29;99422.53;;;12.82;95.41
65175;BME280;51761;42.126;24.752;2023-04-22T04:56:55;99428.34;;;13.03;93.50
65175;BME280;51761;42.126;24.752;2023-04-22T04:59:21;99438.72;;;13.31;92.29
65175;BME280;51761;42.126;24.752;2023-04-22T05:01:47;99435.81;;;13.22;92.70
65175;BME280;51761;42.126;24.752;2023-04-22T05:04:12;99438.81;;;13.28;92.81
65175;BME280;51761;42.126;24.752;2023-04-22T05:06:38;99440.75;;;13.43;91.89
65175;BME280;51761;42.126;24.752;2023-04-22T05:09:03;99419.13;;;13.44;91.26
65175;BME280;51761;42.126;24.752;2023-04-22T05:11:29;99443.16;;;13.70;90.51
65175;BME280;51761;42.126;24.752;2023-04-22T05:13:55;99426.44;;;13.66;90.40
65175;BME280;51761;42.126;24.752;2023-04-22T05:16:20;99445.41;;;13.87;90.26
65175;BME280;51761;42.126;24.752;2023-04-22T05:18:46;99444.75;;;13.96;89.70
65175;BME280;51761;42.126;24.752;2023-04-22T05:21:11;99456.09;;;14.29;88.30
65175;BME280;51761;42.126;24.752;2023-04-22T05:23:37;99456.19;;;14.38;87.23
65175;BME280;51761;42.126;24.752;2023-04-22T05:26:03;99452.69;;;14.47;86.09
65175;BME280;51761;42.126;24.752;2023-04-22T05:28:29;99454.91;;;14.52;85.15
65175;BME280;51761;42.126;24.752;2023-04-22T05:30:54;99455.56;;;14.56;85.68
65175;BME280;51761;42.126;24.752;2023-04-22T05:33:20;99455.09;;;14.70;85.16
65175;BME280;51761;42.126;24.752;2023-04-22T05:35:46;99454.59;;;14.84;81.40
65175;BME280;51761;42.126;24.752;2023-04-22T05:38:11;99451.41;;;14.94;80.69
65175;BME280;51761;42.126;24.752;2023-04-22T05:40:37;99448.09;;;15.08;81.04
65175;BME280;51761;42.126;24.752;2023-04-22T05:43:03;99440.75;;;15.11;79.98
65175;BME280;51761;42.126;24.752;2023-04-22T05:45:28;99466.13;;;15.32;80.05
65175;BME280;51761;42.126;24.752;2023-04-22T05:47:54;99461.50;;;15.47;78.85
65175;BME280;51761;42.126;24.752;2023-04-22T05:50:19;99464.44;;;15.65;78.71
65175;BME280;51761;42.126;24.752;2023-04-22T05:52:44;99427.69;;;15.69;78.70
65175;BME280;51761;42.126;24.752;2023-04-22T05:55:10;99456.59;;;15.90;78.11
65175;BME280;51761;42.126;24.752;2023-04-22T05:57:35;99453.31;;;15.92;76.19
65175;BME280;51761;42.126;24.752;2023-04-22T06:00:03;99461.22;;;16.15;73.52
65175;BME280;51761;42.126;24.752;2023-04-22T06:02:28;99450.94;;;16.30;74.13
65175;BME280;51761;42.126;24.752;2023-04-22T06:04:54;99468.13;;;16.62;73.40
65175;BME280;51761;42.126;24.752;2023-04-22T06:07:19;99459.50;;;16.57;72.20
65175;BME280;51761;42.126;24.752;2023-04-22T06:09:45;99462.81;;;16.73;70.98
65175;BME280;51761;42.126;24.752;2023-04-22T06:12:10;99465.81;;;16.79;72.99
65175;BME280;51761;42.126;24.752;2023-04-22T06:14:36;99450.59;;;16.67;72.19
65175;BME280;51761;42.126;24.752;2023-04-22T06:17:01;99465.50;;;16.95;69.87
65175;BME280;51761;42.126;24.752;2023-04-22T06:19:27;99456.41;;;17.09;67.29
65175;BME280;51761;42.126;24.752;2023-04-22T06:21:52;99445.09;;;17.62;78.81
65175;BME280;51761;42.126;24.752;2023-04-22T06:24:18;99459.38;;;18.42;83.89
65175;BME280;51761;42.126;24.752;2023-04-22T06:26:43;99449.44;;;18.93;71.94
65175;BME280;51761;42.126;24.752;2023-04-22T06:29:09;99456.63;;;19.70;76.97
65175;BME280;51761;42.126;24.752;2023-04-22T06:31:35;99453.97;;;20.59;59.88
65175;BME280;51761;42.126;24.752;2023-04-22T06:34:00;99454.72;;;20.93;61.01
65175;BME280;51761;42.126;24.752;2023-04-22T06:36:26;99461.00;;;20.00;60.19
65175;BME280;51761;42.126;24.752;2023-04-22T06:38:52;99440.72;;;19.87;61.38
65175;BME280;51761;42.126;24.752;2023-04-22T06:41:17;99441.56;;;19.93;57.65
65175;BME280;51761;42.126;24.752;2023-04-22T06:43:43;99458.03;;;20.72;57.05
65175;BME280;51761;42.126;24.752;2023-04-22T06:46:09;99457.63;;;21.64;53.26
65175;BME280;51761;42.126;24.752;2023-04-22T06:48:35;99456.81;;;22.51;50.99
65175;BME280;51761;42.126;24.752;2023-04-22T06:51:00;99440.16;;;22.75;48.41
65175;BME280;51761;42.126;24.752;2023-04-22T06:53:26;99463.19;;;22.82;48.88
65175;BME280;51761;42.126;24.752;2023-04-22T06:55:52;99464.34;;;23.01;49.24
65175;BME280;51761;42.126;24.752;2023-04-22T06:58:19;99459.63;;;23.40;48.84
65175;BME280;51761;42.126;24.752;2023-04-22T07:00:45;99467.72;;;23.80;49.00
65175;BME280;51761;42.126;24.752;2023-04-22T07:03:10;99450.13;;;23.93;47.29
65175;BME280;51761;42.126;24.752;2023-04-22T07:05:36;99454.28;;;23.92;47.84
65175;BME280;51761;42.126;24.752;2023-04-22T07:08:02;99475.81;;;24.04;46.14
65175;BME280;51761;42.126;24.752;2023-04-22T07:10:27;99467.50;;;23.89;46.28
65175;BME280;51761;42.126;24.752;2023-04-22T07:12:52;99457.38;;;24.05;45.49
65175;BME280;51761;42.126;24.752;2023-04-22T07:15:18;99478.66;;;24.25;43.67
65175;BME280;51761;42.126;24.752;2023-04-22T07:17:43;99477.34;;;24.59;44.38
65175;BME280;51761;42.126;24.752;2023-04-22T07:20:09;99468.19;;;24.99;44.13
65175;BME280;51761;42.126;24.752;2023-04-22T07:22:35;99472.59;;;24.95;43.28
65175;BME280;51761;42.126;24.752;2023-04-22T07:25:01;99455.31;;;24.43;46.67
65175;BME280;51761;42.126;24.752;2023-04-22T07:27:26;99457.91;;;24.41;44.56
65175;BME280;51761;42.126;24.752;2023-04-22T07:29:52;99451.94;;;24.39;45.38
65175;BME280;51761;42.126;24.752;2023-04-22T07:32:17;99462.78;;;24.79;43.77
65175;BME280;51761;42.126;24.752;2023-04-22T07:34:43;99471.31;;;24.96;44.55
65175;BME280;51761;42.126;24.752;2023-04-22T07:37:09;99474.97;;;24.85;45.61
65175;BME280;51761;42.126;24.752;2023-04-22T07:39:34;99476.69;;;25.21;42.45
65175;BME280;51761;42.126;24.752;2023-04-22T07:42:00;99448.03;;;25.78;38.50
65175;BME280;51761;42.126;24.752;2023-04-22T07:44:26;99472.97;;;26.53;37.05
65175;BME280;51761;42.126;24.752;2023-04-22T07:46:51;99459.75;;;25.34;38.69
65175;BME280;51761;42.126;24.752;2023-04-22T07:49:18;99475.53;;;25.46;39.54
65175;BME280;51761;42.126;24.752;2023-04-22T07:51:44;99465.72;;;25.31;40.17
65175;BME280;51761;42.126;24.752;2023-04-22T07:54:10;99454.34;;;25.66;39.17
65175;BME280;51761;42.126;24.752;2023-04-22T07:56:35;99480.09;;;26.06;39.61
65175;BME280;51761;42.126;24.752;2023-04-22T07:59:01;99466.91;;;25.98;39.32
65175;BME280;51761;42.126;24.752;2023-04-22T08:01:27;99473.34;;;25.12;41.32
65175;BME280;51761;42.126;24.752;2023-04-22T08:03:52;99475.34;;;25.33;41.35
65175;BME280;51761;42.126;24.752;2023-04-22T08:06:18;99468.44;;;24.90;42.86
65175;BME280;51761;42.126;24.752;2023-04-22T08:08:43;99466.94;;;25.46;41.12
65175;BME280;51761;42.126;24.752;2023-04-22T08:11:09;99469.91;;;25.76;41.24
65175;BME280;51761;42.126;24.752;2023-04-22T08:13:34;99476.94;;;25.75;40.08
65175;BME280;51761;42.126;24.752;2023-04-22T08:16:00;99469.84;;;25.87;40.03
65175;BME280;51761;42.126;24.752;2023-04-22T08:18:29;99474.91;;;26.10;42.43
65175;BME280;51761;42.126;24.752;2023-04-22T08:20:55;99468.84;;;26.13;39.97
65175;BME280;51761;42.126;24.752;2023-04-22T08:23:21;99455.13;;;25.20;40.13
65175;BME280;51761;42.126;24.752;2023-04-22T08:25:47;99441.41;;;25.59;40.17
65175;BME280;51761;42.126;24.752;2023-04-22T08:28:13;99439.00;;;25.28;39.66
65175;BME280;51761;42.126;24.752;2023-04-22T08:30:39;99440.09;;;25.60;38.39
65175;BME280;51761;42.126;24.752;2023-04-22T08:33:04;99452.09;;;25.53;39.44
65175;BME280;51761;42.126;24.752;2023-04-22T08:35:30;99444.19;;;25.70;39.30
65175;BME280;51761;42.126;24.752;2023-04-22T08:37:58;99440.03;;;25.66;39.07
65175;BME280;51761;42.126;24.752;2023-04-22T08:40:23;99446.66;;;25.96;38.16
65175;BME280;51761;42.126;24.752;2023-04-22T08:42:50;99443.78;;;25.55;37.88
65175;BME280;51761;42.126;24.752;2023-04-22T08:45:16;99431.03;;;25.56;39.59
65175;BME280;51761;42.126;24.752;2023-04-22T08:47:42;99431.38;;;25.82;40.12
65175;BME280;51761;42.126;24.752;2023-04-22T08:50:08;99432.06;;;25.93;40.27
65175;BME280;51761;42.126;24.752;2023-04-22T08:52:34;99433.47;;;25.76;38.26
65175;BME280;51761;42.126;24.752;2023-04-22T08:55:00;99432.69;;;26.16;37.23
65175;BME280;51761;42.126;24.752;2023-04-22T08:57:26;99431.69;;;26.08;37.67
65175;BME280;51761;42.126;24.752;2023-04-22T08:59:52;99429.34;;;26.12;38.10
65175;BME280;51761;42.126;24.752;2023-04-22T09:02:20;99417.25;;;25.95;39.62
65175;BME280;51761;42.126;24.752;2023-04-22T09:04:48;99401.66;;;25.91;39.41
65175;BME280;51761;42.126;24.752;2023-04-22T09:07:25;99418.22;;;26.32;40.71
65175;BME280;51761;42.126;24.752;2023-04-22T09:09:54;99394.09;;;25.93;36.99
65175;BME280;51761;42.126;24.752;2023-04-22T09:12:21;99417.34;;;25.79;39.85
65175;BME280;51761;42.126;24.752;2023-04-22T09:14:46;99400.88;;;25.55;40.73
65175;BME280;51761;42.126;24.752;2023-04-22T09:17:15;99409.75;;;25.46;41.24
65175;BME280;51761;42.126;24.752;2023-04-22T09:19:42;99406.16;;;25.40;39.71
65175;BME280;51761;42.126;24.752;2023-04-22T09:22:12;99400.44;;;24.83;39.79
65175;BME280;51761;42.126;24.752;2023-04-22T09:24:48;99396.34;;;24.62;40.19
65175;BME280;51761;42.126;24.752;2023-04-22T09:27:18;99388.34;;;24.44;43.88
65175;BME280;51761;42.126;24.752;2023-04-22T09:29:48;99389.13;;;24.56;43.15
65175;BME280;51761;42.126;24.752;2023-04-22T09:32:15;99375.16;;;24.14;42.82
65175;BME280;51761;42.126;24.752;2023-04-22T09:34:51;99378.19;;;24.60;41.16
65175;BME280;51761;42.126;24.752;2023-04-22T09:37:18;99373.25;;;24.66;41.33
65175;BME280;51761;42.126;24.752;2023-04-22T09:39:47;99376.16;;;24.55;40.57
65175;BME280;51761;42.126;24.752;2023-04-22T09:42:13;99373.81;;;24.31;41.49
65175;BME280;51761;42.126;24.752;2023-04-22T09:44:39;99347.06;;;24.56;42.88
65175;BME280;51761;42.126;24.752;2023-04-22T09:47:04;99368.56;;;24.68;41.26
65175;BME280;51761;42.126;24.752;2023-04-22T09:49:35;99359.16;;;24.79;41.39
65175;BME280;51761;42.126;24.752;2023-04-22T09:52:01;99367.63;;;25.01;42.13
65175;BME280;51761;42.126;24.752;2023-04-22T09:54:27;99359.97;;;24.74;40.31
65175;BME280;51761;42.126;24.752;2023-04-22T09:56:52;99349.41;;;24.52;42.41
65175;BME280;51761;42.126;24.752;2023-04-22T10:01:50;99352.41;;;22.79;44.57
65175;BME280;51761;42.126;24.752;2023-04-22T10:04:16;99348.19;;;23.49;43.79
65175;BME280;51761;42.126;24.752;2023-04-22T10:06:46;99349.22;;;23.57;41.99
65175;BME280;51761;42.126;24.752;2023-04-22T10:09:11;99343.03;;;23.92;39.75
65175;BME280;51761;42.126;24.752;2023-04-22T10:11:37;99349.63;;;23.01;44.64
65175;BME280;51761;42.126;24.752;2023-04-22T10:14:04;99344.31;;;22.56;43.86
65175;BME280;51761;42.126;24.752;2023-04-22T10:16:31;99356.44;;;23.20;42.91
65175;BME280;51761;42.126;24.752;2023-04-22T10:19:00;99348.69;;;23.81;41.61
65175;BME280;51761;42.126;24.752;2023-04-22T10:21:28;99336.50;;;24.19;41.91
65175;BME280;51761;42.126;24.752;2023-04-22T10:23:57;99333.84;;;24.53;40.96
65175;BME280;51761;42.126;24.752;2023-04-22T10:26:42;99341.47;;;23.91;40.58
65175;BME280;51761;42.126;24.752;2023-04-22T10:29:12;99335.00;;;23.90;40.17
65175;BME280;51761;42.126;24.752;2023-04-22T10:31:42;99331.34;;;24.01;38.94
65175;BME280;51761;42.126;24.752;2023-04-22T10:34:13;99319.66;;;24.15;37.86
65175;BME280;51761;42.126;24.752;2023-04-22T10:36:56;99336.97;;;24.44;36.59
65175;BME280;51761;42.126;24.752;2023-04-22T10:39:23;99345.50;;;25.12;39.79
65175;BME280;51761;42.126;24.752;2023-04-22T10:41:50;99335.91;;;25.50;40.79
65175;BME280;51761;42.126;24.752;2023-04-22T10:44:17;99341.75;;;25.98;36.51
65175;BME280;51761;42.126;24.752;2023-04-22T10:49:21;99347.69;;;26.29;34.77
65175;BME280;51761;42.126;24.752;2023-04-22T10:51:52;99352.50;;;25.17;39.73
65175;BME280;51761;42.126;24.752;2023-04-22T10:57:20;99356.50;;;23.64;43.12
65175;BME280;51761;42.126;24.752;2023-04-22T10:59:51;99363.81;;;22.79;44.62
65175;BME280;51761;42.126;24.752;2023-04-22T11:02:17;99348.81;;;22.37;45.76
65175;BME280;51761;42.126;24.752;2023-04-22T11:04:43;99362.06;;;22.40;45.73
65175;BME280;51761;42.126;24.752;2023-04-22T11:10:07;99359.97;;;22.98;43.44
65175;BME280;51761;42.126;24.752;2023-04-22T11:15:00;99354.94;;;23.57;41.17
65175;BME280;51761;42.126;24.752;2023-04-22T11:17:29;99365.91;;;22.95;42.40
65175;BME280;51761;42.126;24.752;2023-04-22T11:19:56;99378.28;;;22.70;42.84
65175;BME280;51761;42.126;24.752;2023-04-22T11:22:25;99385.56;;;22.35;42.59
65175;BME280;51761;42.126;24.752;2023-04-22T11:24:58;99379.88;;;21.42;43.60
65175;BME280;51761;42.126;24.752;2023-04-22T11:27:25;99383.63;;;20.83;45.13
65175;BME280;51761;42.126;24.752;2023-04-22T11:32:26;99401.00;;;20.36;46.30
65175;BME280;51761;42.126;24.752;2023-04-22T11:34:52;99397.56;;;20.12;46.05
65175;BME280;51761;42.126;24.752;2023-04-22T11:37:18;99380.53;;;19.77;47.63
65175;BME280;51761;42.126;24.752;2023-04-22T11:39:43;99411.19;;;19.79;49.41
65175;BME280;51761;42.126;24.752;2023-04-22T11:42:11;99405.34;;;19.53;49.83
65175;BME280;51761;42.126;24.752;2023-04-22T11:44:38;99420.34;;;19.16;49.25
65175;BME280;51761;42.126;24.752;2023-04-22T11:47:03;99404.63;;;18.77;51.63
65175;BME280;51761;42.126;24.752;2023-04-22T11:49:29;99432.06;;;18.62;50.99
65175;BME280;51761;42.126;24.752;2023-04-22T11:51:57;99433.38;;;18.76;52.37
65175;BME280;51761;42.126;24.752;2023-04-22T11:54:49;99420.88;;;18.68;51.61
65175;BME280;51761;42.126;24.752;2023-04-22T11:57:15;99420.44;;;18.60;53.83
65175;BME280;51761;42.126;24.752;2023-04-22T11:59:42;99406.69;;;18.53;53.49
65175;BME280;51761;42.126;24.752;2023-04-22T12:02:08;99425.75;;;18.67;54.63
65175;BME280;51761;42.126;24.752;2023-04-22T12:04:41;99411.38;;;18.56;54.51
65175;BME280;51761;42.126;24.752;2023-04-22T12:07:07;99435.88;;;18.59;55.31
65175;BME280;51761;42.126;24.752;2023-04-22T12:09:33;99405.50;;;18.45;56.25
65175;BME280;51761;42.126;24.752;2023-04-22T12:11:58;99434.19;;;18.76;54.99
65175;BME280;51761;42.126;24.752;2023-04-22T12:14:32;99443.56;;;18.82;54.72
65175;BME280;51761;42.126;24.752;2023-04-22T12:16:57;99413.00;;;18.72;53.83
65175;BME280;51761;42.126;24.752;2023-04-22T12:19:26;99414.97;;;18.80;55.10
65175;BME280;51761;42.126;24.752;2023-04-22T12:21:55;99452.75;;;18.68;55.58
65175;BME280;51761;42.126;24.752;2023-04-22T12:24:26;99452.31;;;18.46;59.04
65175;BME280;51761;42.126;24.752;2023-04-22T12:26:53;99448.94;;;18.24;60.48
65175;BME280;51761;42.126;24.752;2023-04-22T12:29:32;99454.84;;;18.03;61.04
65175;BME280;51761;42.126;24.752;2023-04-22T12:31:58;99457.13;;;17.72;61.44
65175;BME280;51761;42.126;24.752;2023-04-22T12:34:24;99430.34;;;17.50;64.75
65175;BME280;51761;42.126;24.752;2023-04-22T12:36:50;99452.34;;;17.37;65.02
65175;BME280;51761;42.126;24.752;2023-04-22T12:39:15;99449.34;;;17.13;63.83
65175;BME280;51761;42.126;24.752;2023-04-22T12:41:41;99447.31;;;16.96;65.64
65175;BME280;51761;42.126;24.752;2023-04-22T12:44:06;99436.97;;;16.84;67.71
65175;BME280;51761;42.126;24.752;2023-04-22T12:46:35;99442.31;;;16.82;69.69
65175;BME280;51761;42.126;24.752;2023-04-22T12:49:00;99444.19;;;16.76;69.77
65175;BME280;51761;42.126;24.752;2023-04-22T12:51:26;99441.81;;;16.65;69.20
65175;BME280;51761;42.126;24.752;2023-04-22T12:53:52;99444.72;;;16.44;70.32
65175;BME280;51761;42.126;24.752;2023-04-22T12:56:17;99445.31;;;16.30;72.86
65175;BME280;51761;42.126;24.752;2023-04-22T12:58:43;99444.72;;;16.35;72.73
65175;BME280;51761;42.126;24.752;2023-04-22T13:01:08;99431.84;;;16.25;69.46